• Join FlightAware (Why Join?)
  • Login
  • US Flag 
12:56AM EST


 

Airport Tracker/Info


-or-


 

Live Flight TrackerFlight Track Log ✈ SEJ1053 ✈ 25-Apr-2014 ✈ VOHS / HYD - VAID / IDR

Flight Track Log - Related Links

Times and Time Zones

All times are in EDT time to prevent confusion due to time zone crossing. See the SEJ1053 flight status page for this flight to view local times or setup timezone preferences in your user account.

Time Position Orientation Groundspeed Altitude Reporting Facility
EDT Latitude Longitude Course Direction KTS MPH feet Rate Location/Type
08:23AM 18.0305 78.0693 336° Northwest  Level Estimated
08:24AM 18.0790 78.0465 336° Northwest  Level Estimated
08:25AM 18.1275 78.0238 336° Northwest  Level Estimated
08:26AM 18.1760 78.0011 336° Northwest  Level Estimated
08:27AM 18.2245 77.9783 336° Northwest  Level Estimated
08:28AM 18.2730 77.9556 336° Northwest  Level Estimated
08:29AM 18.3215 77.9328 336° Northwest  Level Estimated
08:30AM 18.3700 77.9100 336° Northwest  Level Estimated
08:31AM 18.4184 77.8872 336° Northwest  Level Estimated
08:32AM 18.4669 77.8644 336° Northwest  Level Estimated
08:33AM 18.5154 77.8416 336° Northwest  Level Estimated
08:34AM 18.5639 77.8187 336° Northwest  Level Estimated
08:35AM 18.6124 77.7959 336° Northwest  Level Estimated
08:36AM 18.6608 77.7730 336° Northwest  Level Estimated
08:37AM 18.7093 77.7501 336° Northwest  Level Estimated
08:38AM 18.7578 77.7272 336° Northwest  Level Estimated
08:39AM 18.8062 77.7043 336° Northwest  Level Estimated
08:40AM 18.8547 77.6814 336° Northwest  Level Estimated
08:41AM 18.9032 77.6585 336° Northwest  Level Estimated
08:42AM 18.9516 77.6355 336° Northwest  Level Estimated
08:43AM 19.0001 77.6125 336° Northwest  Level Estimated
08:44AM 19.0485 77.5896 336° Northwest  Level Estimated
08:45AM 19.0970 77.5666 336° Northwest  Level Estimated
08:46AM 19.1454 77.5436 336° Northwest  Level Estimated
08:47AM 19.1939 77.5206 336° Northwest  Level Estimated
08:48AM 19.2423 77.4976 336° Northwest  Level Estimated
08:49AM 19.2908 77.4745 336° Northwest  Level Estimated
08:50AM 19.3392 77.4515 336° Northwest  Level Estimated
08:51AM 19.3876 77.4284 336° Northwest  Level Estimated
08:52AM 19.4361 77.4053 336° Northwest  Level Estimated
08:53AM 19.4845 77.3822 336° Northwest  Level Estimated
08:54AM 19.5329 77.3591 336° Northwest  Level Estimated
08:55AM 19.5813 77.3360 336° Northwest  Level Estimated
08:56AM 19.6297 77.3128 336° Northwest  Level Estimated
08:57AM 19.6782 77.2897 336° Northwest  Level Estimated
08:58AM 19.7266 77.2665 336° Northwest  Level Estimated
08:59AM 19.7750 77.2433 336° Northwest  Level Estimated
09:00AM 19.8234 77.2202 336° Northwest  Level Estimated
09:01AM 19.8718 77.1970 336° Northwest  Level Estimated
09:02AM 19.9202 77.1737 336° Northwest  Level Estimated
09:03AM 19.9686 77.1505 336° Northwest  Level Estimated
09:04AM 20.0170 77.1272 336° Northwest  Level Estimated
09:05AM 20.0654 77.1040 336° Northwest  Level Estimated
09:06AM 20.1138 77.0807 336° Northwest  Level Estimated
09:07AM 20.1621 77.0574 336° Northwest  Level Estimated
09:08AM 20.2105 77.0341 336° Northwest  Level Estimated
09:09AM 20.2589 77.0108 336° Northwest  Level Estimated
09:10AM 20.3073 76.9874 336° Northwest  Level Estimated
09:11AM 20.3556 76.9641 336° Northwest  Level Estimated
09:12AM 20.4040 76.9407 336° Northwest  Level Estimated
09:13AM 20.4524 76.9174 336° Northwest  Level Estimated
09:14AM 20.5007 76.8940 336° Northwest  Level Estimated
09:15AM 20.5491 76.8705 336° Northwest  Level Estimated
09:16AM 20.5975 76.8471 336° Northwest  Level Estimated
09:17AM 20.6458 76.8237 336° Northwest  Level Estimated
09:18AM 20.6942 76.8002 336° Northwest  Level Estimated
09:19AM 20.7425 76.7768 336° Northwest  Level Estimated
09:20AM 20.7908 76.7533 336° Northwest  Level Estimated
09:21AM 20.8392 76.7298 336° Northwest  Level Estimated
09:22AM 20.8875 76.7063 336° Northwest  Level Estimated
09:23AM 20.9359 76.6827 336° Northwest  Level Estimated
09:24AM 20.9842 76.6592 336° Northwest  Level Estimated
09:25AM 21.0325 76.6356 336° Northwest  Level Estimated
09:26AM 21.0808 76.6121 336° Northwest  Level Estimated
09:27AM 21.1292 76.5885 336° Northwest  Level Estimated
09:28AM 21.1775 76.5648 336° Northwest  Level Estimated
09:29AM 21.2258 76.5412 336° Northwest  Level Estimated
09:30AM 21.2741 76.5176 335° Northwest  Level Estimated
09:31AM 21.3224 76.4939 335° Northwest  Level Estimated
09:32AM 21.3707 76.4703 335° Northwest  Level Estimated
09:33AM 21.4190 76.4466 335° Northwest  Level Estimated
09:34AM 21.4673 76.4229 335° Northwest  Level Estimated
09:35AM 21.5156 76.3992 335° Northwest  Level Estimated
09:36AM 21.5639 76.3755 335° Northwest  Level Estimated
09:37AM 21.6122 76.3517 335° Northwest  Level Estimated
09:38AM 21.6605 76.3279 335° Northwest  Level Estimated
09:39AM 21.7087 76.3042 335° Northwest  Level Estimated
09:40AM 21.7570 76.2804 335° Northwest  Level Estimated
09:41AM 21.8053 76.2566 335° Northwest  Level Estimated
09:42AM 21.8536 76.2327 335° Northwest  Level Estimated
09:43AM 21.9018 76.2089 335° Northwest  Level Estimated
09:44AM 21.9501 76.1850 335° Northwest  Level Estimated
09:45AM 21.9984 76.1611 335° Northwest  Level Estimated
09:46AM 22.0466 76.1373 335° Northwest  Level Estimated
09:47AM 22.0949 76.1134 335° Northwest  Level Estimated
09:48AM 22.1431 76.0894 335° Northwest  Level Estimated
09:49AM 22.1914 76.0655 335° Northwest  Level Estimated
09:50AM 22.2396 76.0415 335° Northwest  Level Estimated
09:51AM 22.2878 76.0176 335° Northwest  Level Estimated
09:52AM 22.3361 75.9936 335° Northwest  Level Estimated
09:53AM 22.3843 75.9696 335° Northwest  Level Estimated
09:54AM 22.4326 75.9455 335° Northwest  Level Estimated
09:55AM 22.4808 75.9215 335° Northwest  Level Estimated
09:56AM 22.5290 75.8975 335° Northwest  Level Estimated
09:57AM 22.5772 75.8734 335° Northwest  Level Estimated
09:58AM 22.6254 75.8493 335° Northwest  Level Estimated
09:59AM 22.6736 75.8252 335° Northwest  Level Estimated
10:00AM 22.7218 75.8011 335° Northwest  Level Estimated
10:01AM 22.7218 75.8011 North  Level Estimated
10:02AM 22.7218 75.8011 North  Level Estimated
10:03AM 22.7218 75.8011 North  Level Estimated
10:04AM 22.7218 75.8011 North  Level Estimated
10:05AM 22.7218 75.8011 North  Level Estimated
10:06AM 22.7218 75.8011 North  Level Estimated
10:07AM 22.7218 75.8011 North  Level Estimated
10:08AM 22.7218 75.8011 North  Level Estimated
10:09AM 22.7218 75.8011 North  Level Estimated
10:10AM 22.7218 75.8011 North  Level Estimated
10:11AM 22.7218 75.8011 North  Level Estimated
10:12AM 22.7218 75.8011 North  Level Estimated
10:13AM 22.7218 75.8011 North  Level Estimated
10:14AM 22.7218 75.8011 North  Level Estimated
10:15AM 22.7218 75.8011 North  Level Estimated
10:16AM 22.7218 75.8011 North  Level Estimated